Anaconda, MT

10:32 AM MDT on September 03, 2015 (GMT -0600)
goosetown 2 | | Change Station
CLOSE
Current Station
Personal Weather Station
Location: Anaconda, MT
Elevation: 5240 ft
Nearby Weather Stations

Elev 5240 ft 46.13 °N, 112.94 °W | Updated 12 minutes ago

Overcast
Overcast
51.4 °F
Feels Like 51.4 °F
N
0.0
Wind Variable Wind from ESE
Gusts 7.0 mph

Today
High -- | Low -- °F
--% Chance of Precip.
Yesterday
High -- | Low -- °F
Precip. -- in
6:55 AM 8:07 PM
Waning Gibbous, 69% visible
Pressure 29.85 in
Visibility 10.0 miles
Clouds Mostly Cloudy 10000 ft
Dew Point 40 °F
Humidity 66%
Rainfall 0.00 in
Snow Depth Not available.
UV 2 out of 12
Pollen 7.40 out of 12
Air Quality Not available.
Flu Activity Not available.
METAR KBTM 031553Z AUTO 31005KT 10SM BKN100 11/03 A2996 RMK AO2 SLP107 T01060033
Pressure 29.85 in
Visibility 10.0 miles
Clouds Mostly Cloudy 10000 ft
Dew Point 40 °F
Humidity 66%
Rainfall 0.00 in
Snow Depth Not available.
UV 2 out of 12
Pollen 7.40 out of 12
Air Quality Not available.
Flu Activity Not available.
METAR KBTM 031553Z AUTO 31005KT 10SM BKN100 11/03 A2996 RMK AO2 SLP107 T01060033

10-Day Weather Forecast

×

Almanac

Astronomy

Sep. 03, 2015 Rise Set
Actual Time
Civil Twilight
Nautical Twilight
Astronomical Twilight
Moon
Length of Visible Light
Length of Day
Tomorrow will be .
, % of the Moon is Illuminated

Today's Extremes

State Highs State Lows

Community

WunderPhotos

Upload Photos

1,851,988 photos uploaded!

WunderBlogs® & News

Nearby

Air Quality

  Air Quality AQ Index Pollutant
Not available.

Snow Depth

Station Depth Elevation

Earthquake Activity

City Distance Mag. Time & Date
Minimum magnitude displayed is 2.5.

Coastal Water Temperatures

Place Temperature

Stations

Nearby Weather Stations

Station Location Temp. Windchill Dew Point Humidity Wind Precip. Elev Updated Type